Miedwie — C6XP5 — position and weather

sailwx.info

Track history (hours):
 
Tides and Currents Weather Stations Pressure Air Temp Water Temp Dewpoint Dewpoint Depression Visibility Wind Speed Wind Dir Waves Ship Positions

Miedwie

Last reported at 2015-May-21 20:33 UTC. Time now 2015-May-28 20:18 UTC.
Position N 46°04' W 083°59'.

Length 190 m; draft 6.6 m.

Type: Cargo ship. MMSI: 311018300.

Date/timePositionNaut miles runAvg speedWind from/ knotsBaromVisibWave heightAir tempDewpointWater temp
2015-May-21 20:33N 46°04' W 083°59'7 7.1
2015-May-21 19:31N 45°57' W 083°53'1212.4
2015-May-21 18:34N 45°52' W 084°09'1312.8
2015-May-21 17:33N 45°51' W 084°27'1111.2
2015-May-21 16:34N 45°49' W 084°43'1312.5
2015-May-21 15:34N 45°50' W 085°01'1010.1
2015-May-21 14:34N 45°43' W 085°12'1212.4
2015-May-21 13:33N 45°33' W 085°22'1212.3
2015-May-21 12:33N 45°23' W 085°33'1212.4
2015-May-21 11:33N 45°13' W 085°43'1212.4
2015-May-21 10:34N 45°03' W 085°54'1212.2
2015-May-21 09:33N 44°56' W 086°08'  
2015-May-15 11:31N 45°02' W 086°22'1212.3
2015-May-15 10:33N 45°13' W 086°18'1212.4
2015-May-15 09:33N 45°25' W 086°13'1212.0
2015-May-15 08:33N 45°36' W 086°07'1211.6
2015-May-15 07:33N 45°45' W 085°56'1212.3
2015-May-15 06:33N 45°51' W 085°40'1212.2
2015-May-15 05:33N 45°53' W 085°23'1312.7
2015-May-15 04:33N 45°52' W 085°05'1312.8
2015-May-15 03:33N 45°49' W 084°47'1212.5
2015-May-15 02:33N 45°44' W 084°31'1111.0
2015-May-15 01:33N 45°41' W 084°16'1212.4
2015-May-15 00:33N 45°36' W 083°60'  
Track history (hours):
 
Tides and Currents Weather Stations Pressure Air Temp Water Temp Dewpoint Dewpoint Depression Visibility Wind Speed Wind Dir Waves Ship Positions

Miedwie

Last reported at 2015-May-21 20:33 UTC. Time now 2015-May-28 20:18 UTC.
Position N 46°04' W 083°59'.

Length 190 m; draft 6.6 m.

Type: Cargo ship. MMSI: 311018300.

Date/timePositionNaut miles runAvg speedWind from/ knotsBaromVisibWave heightAir tempDewpointWater temp
2015-May-21 20:33N 46°04' W 083°59'7 7.1
2015-May-21 19:31N 45°57' W 083°53'1212.4
2015-May-21 18:34N 45°52' W 084°09'1312.8
2015-May-21 17:33N 45°51' W 084°27'1111.2
2015-May-21 16:34N 45°49' W 084°43'1312.5
2015-May-21 15:34N 45°50' W 085°01'1010.1
2015-May-21 14:34N 45°43' W 085°12'1212.4
2015-May-21 13:33N 45°33' W 085°22'1212.3
2015-May-21 12:33N 45°23' W 085°33'1212.4
2015-May-21 11:33N 45°13' W 085°43'1212.4
2015-May-21 10:34N 45°03' W 085°54'1212.2
2015-May-21 09:33N 44°56' W 086°08'  
2015-May-15 11:31N 45°02' W 086°22'1212.3
2015-May-15 10:33N 45°13' W 086°18'1212.4
2015-May-15 09:33N 45°25' W 086°13'1212.0
2015-May-15 08:33N 45°36' W 086°07'1211.6
2015-May-15 07:33N 45°45' W 085°56'1212.3
2015-May-15 06:33N 45°51' W 085°40'1212.2
2015-May-15 05:33N 45°53' W 085°23'1312.7
2015-May-15 04:33N 45°52' W 085°05'1312.8
2015-May-15 03:33N 45°49' W 084°47'1212.5
2015-May-15 02:33N 45°44' W 084°31'1111.0
2015-May-15 01:33N 45°41' W 084°16'1212.4
2015-May-15 00:33N 45°36' W 083°60'  

Dump ship's entire track history